Time;durP1;ratioP1;P1;durP2;ratioP2;P2;SDS_P1;SDS_P2;PMS_P1;PMS_P2;Temp;Humidity;BMP_temperature;BMP_pressure;BME280_temperature;BME280_humidity;BME280_pressure;Samples;Min_cycle;Max_cycle;Signal;HPM_P1;HPM_P2
2023/10/17 00:02:53;;;;;;;3.33;1.80;;;9.90;42.70;;;;;;6218713;28;20050;-77
2023/10/17 00:05:56;;;;;;;6.75;2.25;;;10.00;37.20;;;;;;6218349;28;20049;-77
2023/10/17 00:08:58;;;;;;;7.00;2.30;;;10.00;38.90;;;;;;6218509;28;20049;-77
2023/10/17 00:12:04;;;;;;;5.70;1.90;;;10.00;37.10;;;;;;6221136;28;20062;-77
2023/10/17 00:15:24;;;;;;;6.95;1.83;;;10.00;37.10;;;;;;6206416;28;20602;-77
2023/10/17 00:18:26;;;;;;;7.00;1.83;;;10.10;34.10;;;;;;6198566;28;20489;-77
2023/10/17 00:21:28;;;;;;;7.47;2.22;;;10.20;32.80;;;;;;6222025;28;20189;-77
2023/10/17 00:24:29;;;;;;;6.88;1.60;;;10.20;30.90;;;;;;6222192;28;20506;-76
2023/10/17 00:27:31;;;;;;;4.00;1.40;;;10.30;30.50;;;;;;6221877;28;20054;-77
2023/10/17 00:30:33;;;;;;;6.82;1.92;;;10.30;28.80;;;;;;6220497;28;20108;-77
2023/10/17 00:33:37;;;;;;;8.25;1.80;;;10.30;28.50;;;;;;6198026;28;20054;-77
2023/10/17 00:36:47;;;;;;;4.60;1.50;;;10.30;27.80;;;;;;6221932;28;20046;-77
2023/10/17 00:39:49;;;;;;;5.72;1.63;;;10.40;26.80;;;;;;6198167;28;20062;-78
2023/10/17 00:42:51;;;;;;;3.92;1.27;;;10.30;27.40;;;;;;6214919;28;20045;-77
2023/10/17 00:45:52;;;;;;;4.07;1.30;;;10.40;26.90;;;;;;6222188;28;20052;-77
2023/10/17 00:48:56;;;;;;;4.50;1.52;;;10.40;26.10;;;;;;6220036;28;20525;-77
2023/10/17 00:51:59;;;;;;;3.70;1.63;;;10.40;26.10;;;;;;6222043;28;20819;-77
2023/10/17 00:55:01;;;;;;;6.88;1.40;;;10.40;24.90;;;;;;6221571;28;20053;-77
2023/10/17 00:58:04;;;;;;;6.65;1.40;;;10.50;24.00;;;;;;6216525;28;20072;-77
2023/10/17 01:01:20;;;;;;;6.75;1.58;;;10.40;26.00;;;;;;6221678;28;20081;-77
2023/10/17 01:04:24;;;;;;;6.25;1.58;;;10.40;25.10;;;;;;6221738;28;20058;-77
2023/10/17 01:10:28;;;;;;;6.03;1.60;;;10.40;24.00;;;;;;6221284;28;20056;-77
2023/10/17 01:13:30;;;;;;;4.80;1.58;;;10.40;23.40;;;;;;6219399;28;20088;-77
2023/10/17 01:16:31;;;;;;;5.50;1.35;;;10.40;23.40;;;;;;6221538;28;20085;-77
2023/10/17 01:19:33;;;;;;;3.05;1.30;;;10.40;23.50;;;;;;6221200;28;20053;-77
2023/10/17 01:22:35;;;;;;;4.32;1.45;;;10.40;24.60;;;;;;6220230;28;20496;-77
2023/10/17 01:25:41;;;;;;;4.35;1.35;;;10.40;22.40;;;;;;6220798;28;20050;-76
2023/10/17 01:28:46;;;;;;;5.18;1.45;;;10.30;23.90;;;;;;6205414;28;20061;-77
2023/10/17 01:31:50;;;;;;;4.85;1.40;;;10.30;22.80;;;;;;6219620;28;20050;-77
2023/10/17 01:34:52;;;;;;;6.47;1.98;;;10.30;23.40;;;;;;6220707;28;20136;-77
2023/10/17 01:37:56;;;;;;;5.55;1.30;;;10.30;23.50;;;;;;6220944;28;20050;-77
2023/10/17 01:40:59;;;;;;;4.60;1.40;;;10.30;24.60;;;;;;6219097;28;20056;-77
2023/10/17 01:44:01;;;;;;;3.50;1.38;;;10.30;24.70;;;;;;6215592;28;20050;-77
2023/10/17 01:47:07;;;;;;;5.18;1.40;;;10.20;25.20;;;;;;6220844;28;20064;-77
2023/10/17 01:50:10;;;;;;;4.40;1.33;;;10.20;24.60;;;;;;6211277;28;20577;-77
2023/10/17 01:53:15;;;;;;;4.57;1.58;;;10.20;26.00;;;;;;6220440;28;20053;-77
2023/10/17 01:56:16;;;;;;;5.38;1.50;;;10.20;24.20;;;;;;6219971;28;20054;-77
2023/10/17 01:59:25;;;;;;;3.65;1.50;;;10.20;24.60;;;;;;6218447;28;20092;-77
2023/10/17 02:02:28;;;;;;;7.10;1.52;;;10.30;23.10;;;;;;6195817;28;20058;-77
2023/10/17 02:05:30;;;;;;;7.03;1.67;;;10.30;23.40;;;;;;6219712;28;20054;-76
2023/10/17 02:08:32;;;;;;;5.50;1.52;;;10.30;21.90;;;;;;6219874;28;20060;-77
2023/10/17 02:11:43;;;;;;;5.43;1.45;;;10.30;21.30;;;;;;6219804;28;20418;-77
2023/10/17 02:14:45;;;;;;;5.60;1.70;;;10.30;20.70;;;;;;6206423;28;20058;-77
2023/10/17 02:17:47;;;;;;;5.60;1.80;;;10.30;21.30;;;;;;6218529;28;20050;-77
2023/10/17 02:20:51;;;;;;;8.85;1.67;;;10.30;21.50;;;;;;6218530;28;20204;-77
2023/10/17 02:23:53;;;;;;;5.28;1.55;;;10.30;19.90;;;;;;6219859;28;20049;-77
2023/10/17 02:27:00;;;;;;;4.18;1.48;;;10.30;20.50;;;;;;6219435;28;20050;-77
2023/10/17 02:30:03;;;;;;;4.88;1.90;;;10.30;20.00;;;;;;6215438;28;20072;-77
2023/10/17 02:33:17;;;;;;;5.03;1.65;;;10.30;19.00;;;;;;6219460;28;20057;-77
2023/10/17 02:36:18;;;;;;;6.03;1.67;;;10.30;19.90;;;;;;6195261;28;20494;-77
2023/10/17 02:39:20;;;;;;;5.90;1.65;;;10.30;17.90;;;;;;6218615;28;20509;-77
2023/10/17 02:42:22;;;;;;;6.82;1.63;;;10.30;18.40;;;;;;6219573;28;20057;-77
2023/10/17 02:45:26;;;;;;;11.35;1.90;;;10.30;18.00;;;;;;6217497;28;20379;-77
2023/10/17 02:48:29;;;;;;;7.57;1.73;;;10.30;18.00;;;;;;6195062;28;20081;-75
2023/10/17 02:51:31;;;;;;;6.30;1.83;;;10.30;17.70;;;;;;6219570;28;20648;-75
2023/10/17 02:54:48;;;;;;;5.47;1.60;;;10.30;17.20;;;;;;6219080;28;20054;-75
2023/10/17 02:57:50;;;;;;;5.00;1.45;;;10.30;16.90;;;;;;6196452;28;20054;-76
2023/10/17 03:00:52;;;;;;;4.90;1.60;;;10.30;15.80;;;;;;6219232;28;20053;-76
2023/10/17 03:03:53;;;;;;;4.40;1.77;;;10.30;15.80;;;;;;6194982;28;20060;-76
2023/10/17 03:06:55;;;;;;;4.65;1.67;;;10.40;15.90;;;;;;6224944;28;20482;-76
2023/10/17 03:09:57;;;;;;;6.07;1.60;;;10.30;17.80;;;;;;6216979;28;20418;-76
2023/10/17 03:13:05;;;;;;;3.20;1.50;;;10.20;17.60;;;;;;6218461;28;20060;-76
2023/10/17 03:16:26;;;;;;;5.78;1.25;;;10.20;18.60;;;;;;6219265;28;20172;-78
2023/10/17 03:19:27;;;;;;;5.53;1.27;;;10.10;18.40;;;;;;6217810;28;20172;-77
2023/10/17 03:22:29;;;;;;;5.00;1.70;;;10.20;18.80;;;;;;6218931;28;20057;-77
2023/10/17 03:25:37;;;;;;;3.78;1.40;;;10.10;20.40;;;;;;6218719;28;20057;-77
2023/10/17 03:28:40;;;;;;;5.63;1.40;;;10.10;20.20;;;;;;6202442;28;20498;-77
2023/10/17 03:31:42;;;;;;;3.95;1.45;;;10.10;20.30;;;;;;6217321;28;20406;-76
2023/10/17 03:34:56;;;;;;;6.95;1.58;;;10.20;20.00;;;;;;6218677;28;20523;-76
2023/10/17 03:38:00;;;;;;;5.50;1.33;;;10.20;21.20;;;;;;6194252;28;20054;-77
2023/10/17 03:41:03;;;;;;;7.20;1.50;;;10.20;20.70;;;;;;6218445;28;20139;-77
2023/10/17 03:44:05;;;;;;;4.47;1.48;;;10.30;20.30;;;;;;6213721;28;20527;-77
2023/10/17 03:47:08;;;;;;;5.40;1.25;;;10.20;20.00;;;;;;6222152;28;20066;-76
2023/10/17 03:50:14;;;;;;;3.85;1.40;;;10.30;19.60;;;;;;6221355;28;20058;-77
2023/10/17 03:53:19;;;;;;;5.43;1.40;;;10.30;19.50;;;;;;6222143;28;20068;-76
2023/10/17 03:56:24;;;;;;;2.97;1.35;;;10.40;18.90;;;;;;6198909;28;20054;-76
2023/10/17 03:59:38;;;;;;;4.00;1.30;;;10.30;18.20;;;;;;6220164;28;20066;-76
2023/10/17 04:02:41;;;;;;;2.83;1.25;;;10.40;17.90;;;;;;6198763;28;20112;-76
2023/10/17 04:05:44;;;;;;;10.90;1.85;;;10.40;15.90;;;;;;6222566;28;20133;-76
2023/10/17 04:08:48;;;;;;;3.20;1.45;;;10.50;16.00;;;;;;6222913;28;20057;-76
2023/10/17 04:11:53;;;;;;;3.35;1.20;;;10.50;13.50;;;;;;6223448;28;20058;-77
2023/10/17 04:14:58;;;;;;;5.45;1.35;;;10.50;13.50;;;;;;6214608;28;20069;-77
2023/10/17 04:18:03;;;;;;;7.28;1.40;;;10.50;12.40;;;;;;6199088;28;20142;-77
2023/10/17 04:21:16;;;;;;;3.20;1.30;;;10.60;11.80;;;;;;6222389;28;20107;-78
2023/10/17 04:27:54;;;;;;;6.43;1.42;;;10.60;11.30;;;;;;6191615;28;20050;-78
2023/10/17 04:30:57;;;;;;;5.10;1.40;;;10.50;13.60;;;;;;6222613;28;20494;-77
2023/10/17 04:34:14;;;;;;;6.38;1.52;;;10.50;12.50;;;;;;6197876;28;20101;-78
2023/10/17 04:37:24;;;;;;;4.50;1.40;;;10.50;12.80;;;;;;6198055;28;20645;-76
2023/10/17 04:40:37;;;;;;;5.85;1.25;;;10.50;13.00;;;;;;6196515;28;20054;-76
2023/10/17 04:50:28;;;;;;;6.38;1.65;;;10.50;14.10;;;;;;6197409;28;20420;-77
2023/10/17 04:53:35;;;;;;;6.22;1.90;;;10.40;15.30;;;;;;6198138;28;20127;-77
2023/10/17 04:56:52;;;;;;;5.55;1.77;;;10.40;15.00;;;;;;6197119;28;20062;-76
2023/10/17 05:00:09;;;;;;;6.55;1.90;;;10.40;15.90;;;;;;6194180;28;20536;-75
2023/10/17 05:03:14;;;;;;;8.35;2.08;;;10.30;16.00;;;;;;6197233;28;20069;-76
2023/10/17 05:06:24;;;;;;;7.13;2.00;;;10.30;16.90;;;;;;6197197;28;20470;-76
2023/10/17 06:19:33;;;;;;;8.85;3.90;;;9.30;38.10;;;;;;6218363;28;19930;-77
2023/10/17 06:29:00;;;;;;;12.77;4.60;;;9.10;42.20;;;;;;6214005;28;20065;-76
2023/10/17 06:32:48;;;;;;;12.18;4.57;;;9.20;41.20;;;;;;6194961;28;20058;-77
2023/10/17 06:35:38;;;;;;;12.13;4.20;;;9.20;43.80;;;;;;6194482;28;20054;-76
2023/10/17 06:38:46;;;;;;;10.52;4.20;;;9.30;40.80;;;;;;6217668;28;20053;-76
2023/10/17 06:41:50;;;;;;;12.38;4.20;;;9.40;40.20;;;;;;6195949;28;20105;-78
2023/10/17 06:44:53;;;;;;;12.90;3.88;;;9.50;39.20;;;;;;6217580;28;20053;-76
2023/10/17 06:47:59;;;;;;;10.43;3.67;;;9.70;38.30;;;;;;6219207;28;20064;-76
2023/10/17 06:54:25;;;;;;;9.20;3.60;;;9.90;35.10;;;;;;6195025;28;20062;-78
2023/10/17 06:57:33;;;;;;;10.07;3.58;;;10.00;32.30;;;;;;6211911;28;20053;-76
2023/10/17 07:00:50;;;;;;;7.97;2.72;;;10.10;32.20;;;;;;6195072;28;20054;-77
2023/10/17 07:03:55;;;;;;;7.43;2.70;;;10.10;30.30;;;;;;6212262;28;20104;-77
2023/10/17 07:06:57;;;;;;;8.45;2.10;;;10.30;29.70;;;;;;6228171;28;20257;-77
2023/10/17 07:10:18;;;;;;;6.88;2.42;;;10.30;30.10;;;;;;6212274;28;20127;-77
2023/10/17 07:13:22;;;;;;;9.00;2.70;;;10.30;28.90;;;;;;6199745;28;20125;-77
2023/10/17 07:16:34;;;;;;;9.98;3.08;;;10.50;27.80;;;;;;6222987;28;20251;-77
2023/10/17 07:22:40;;;;;;;7.57;2.58;;;10.70;24.90;;;;;;6223664;28;20143;-78
2023/10/17 07:25:49;;;;;;;8.55;2.33;;;10.80;23.70;;;;;;6223508;28;20220;-78
2023/10/17 07:28:54;;;;;;;11.05;2.30;;;10.90;20.60;;;;;;6220770;28;20053;-77
2023/10/17 07:32:01;;;;;;;13.80;2.47;;;11.00;20.00;;;;;;6225082;28;20049;-77
2023/10/17 07:35:04;;;;;;;8.95;2.05;;;11.00;19.40;;;;;;6199440;28;20061;-76
2023/10/17 07:38:06;;;;;;;6.90;2.05;;;11.10;19.30;;;;;;6223139;28;20501;-78
2023/10/17 07:41:13;;;;;;;9.50;2.25;;;11.20;18.20;;;;;;6223669;28;20060;-77
2023/10/17 07:44:21;;;;;;;9.48;1.98;;;11.30;16.30;;;;;;6213466;28;20112;-77
2023/10/17 07:47:33;;;;;;;6.32;1.90;;;11.40;14.10;;;;;;6223478;28;20156;-76
2023/10/17 07:50:35;;;;;;;8.02;1.80;;;11.50;14.10;;;;;;6215946;28;20516;-76
2023/10/17 07:53:43;;;;;;;11.40;2.20;;;11.60;9.70;;;;;;6222645;28;20497;-76
2023/10/17 07:56:50;;;;;;;19.75;2.10;;;11.60;11.50;;;;;;6198380;28;20190;-76
2023/10/17 07:59:52;;;;;;;5.82;1.80;;;11.70;9.90;;;;;;6222375;28;20057;-76
2023/10/17 08:03:00;;;;;;;6.03;1.77;;;11.80;7.70;;;;;;6223152;28;20050;-81
2023/10/17 08:06:05;;;;;;;3.85;1.60;;;11.80;7.70;;;;;;6197346;28;20085;-75
2023/10/17 08:09:36;;;;;;;10.30;2.15;;;11.90;5.40;;;;;;6221132;28;20500;-81
2023/10/17 08:12:40;;;;;;;5.57;1.75;;;11.90;3.40;;;;;;6199326;28;20054;-76
2023/10/17 08:18:50;;;;;;;8.30;1.85;;;12.10;1.40;;;;;;6223600;28;20054;-79
2023/10/17 08:25:13;;;;;;;6.00;1.70;;;12.10;1.00;;;;;;6225039;28;20054;-84
2023/10/17 08:28:31;;;;;;;5.25;1.63;;;12.10;1.00;;;;;;6212592;28;20052;-81
2023/10/17 08:31:36;;;;;;;5.35;1.50;;;12.10;1.00;;;;;;6233168;28;20049;-90
2023/10/17 08:34:42;;;;;;;5.35;1.70;;;12.20;1.00;;;;;;6231696;28;20046;-81
2023/10/17 08:37:44;;;;;;;6.50;1.60;;;12.30;1.00;;;;;;6202008;28;20065;-78
2023/10/17 08:40:49;;;;;;;6.00;1.65;;;12.30;1.00;;;;;;6223352;28;20060;-88
2023/10/17 08:43:53;;;;;;;5.32;1.35;;;12.30;1.00;;;;;;6219801;28;20054;-82
2023/10/17 08:46:55;;;;;;;5.38;1.30;;;12.40;1.00;;;;;;6222169;28;20065;-84
2023/10/17 08:50:03;;;;;;;3.92;1.33;;;12.50;1.00;;;;;;6205057;28;20050;-77
2023/10/17 08:53:08;;;;;;;5.35;1.30;;;12.50;1.00;;;;;;6220483;28;20049;-78
2023/10/17 08:56:14;;;;;;;7.80;1.45;;;12.60;1.00;;;;;;6202395;28;20073;-79
2023/10/17 08:59:15;;;;;;;6.55;1.13;;;12.70;1.00;;;;;;6219197;28;20057;-77
2023/10/17 09:02:29;;;;;;;5.43;1.25;;;12.70;1.00;;;;;;6221589;28;20494;-79
2023/10/17 09:05:32;;;;;;;3.33;0.98;;;12.80;1.00;;;;;;6196724;28;20050;-83
2023/10/17 09:08:55;;;;;;;5.47;1.65;;;12.90;1.00;;;;;;6220689;28;20065;-79
2023/10/17 09:15:17;;;;;;;9.65;1.17;;;13.20;1.00;;;;;;6217877;28;20152;-76
2023/10/17 09:18:21;;;;;;;3.58;1.10;;;13.20;1.00;;;;;;6219364;28;20385;-78
2023/10/17 09:21:22;;;;;;;4.28;0.90;;;13.40;1.00;;;;;;6220954;28;20529;-79
2023/10/17 09:24:24;;;;;;;4.43;1.00;;;13.40;1.00;;;;;;6220521;28;20501;-81
2023/10/17 09:27:26;;;;;;;2.58;1.02;;;13.50;1.00;;;;;;6220619;28;20559;-85
2023/10/17 09:30:28;;;;;;;4.65;1.00;;;13.70;1.00;;;;;;6213809;28;20069;-85
2023/10/17 09:33:30;;;;;;;7.93;1.15;;;13.70;1.00;;;;;;6209219;28;20085;-76
2023/10/17 09:36:33;;;;;;;4.43;1.10;;;13.60;1.00;;;;;;6220086;28;20589;-79
2023/10/17 09:39:39;;;;;;;3.95;0.93;;;13.80;1.00;;;;;;6220735;28;20065;-80
2023/10/17 09:42:42;;;;;;;4.75;1.00;;;13.70;1.00;;;;;;6208154;28;20075;-79
2023/10/17 09:45:47;;;;;;;7.32;1.35;;;13.70;1.00;;;;;;6219337;28;20127;-76
2023/10/17 09:48:49;;;;;;;5.88;1.02;;;13.60;1.00;;;;;;6218205;28;20116;-76
2023/10/17 09:51:51;;;;;;;3.53;1.08;;;13.60;1.00;;;;;;6220384;28;20425;-78
2023/10/17 09:54:52;;;;;;;4.75;1.48;;;13.60;1.00;;;;;;6218686;28;20064;-80
2023/10/17 09:57:54;;;;;;;4.78;1.20;;;13.70;1.00;;;;;;6220028;28;20166;-77
2023/10/17 10:00:56;;;;;;;8.52;1.30;;;13.80;1.00;;;;;;6220027;28;20058;-82
2023/10/17 10:03:58;;;;;;;5.43;1.30;;;13.90;1.00;;;;;;6220117;28;20058;-80
2023/10/17 10:07:00;;;;;;;3.40;1.27;;;13.90;1.00;;;;;;6216087;28;20057;-80
2023/10/17 10:10:06;;;;;;;4.80;1.35;;;13.90;1.00;;;;;;6218319;28;20374;-78
2023/10/17 10:13:13;;;;;;;6.75;1.30;;;14.00;1.00;;;;;;6198019;28;20053;-77
2023/10/17 10:16:15;;;;;;;6.25;1.33;;;14.00;1.00;;;;;;6218008;28;20403;-82
2023/10/17 10:19:16;;;;;;;6.75;1.67;;;13.90;1.00;;;;;;6219810;28;20128;-81
2023/10/17 10:22:18;;;;;;;5.43;1.42;;;13.90;1.00;;;;;;6220233;28;20316;-81
2023/10/17 10:25:20;;;;;;;7.80;1.42;;;13.90;1.00;;;;;;6200608;28;20349;-79
2023/10/17 10:28:22;;;;;;;3.72;1.20;;;14.00;1.00;;;;;;6216281;28;20060;-80
2023/10/17 10:31:24;;;;;;;5.82;1.20;;;14.10;1.00;;;;;;6219760;28;20115;-84
2023/10/17 10:34:26;;;;;;;7.13;1.48;;;14.20;1.00;;;;;;6218837;28;20132;-85
2023/10/17 10:37:28;;;;;;;6.13;1.58;;;14.20;1.00;;;;;;6218401;28;20057;-80
2023/10/17 10:40:34;;;;;;;6.93;1.45;;;14.10;1.00;;;;;;6219057;28;20057;-80
2023/10/17 10:43:35;;;;;;;3.30;1.10;;;14.20;1.00;;;;;;6217600;28;20072;-78
2023/10/17 10:46:37;;;;;;;6.15;1.10;;;14.50;1.00;;;;;;6219718;28;20482;-88
2023/10/17 10:49:40;;;;;;;6.05;1.48;;;14.60;1.00;;;;;;6216859;28;20140;-82
2023/10/17 10:52:43;;;;;;;5.30;1.30;;;14.60;1.00;;;;;;6219410;28;20050;-80
2023/10/17 10:55:44;;;;;;;8.18;1.40;;;14.70;1.00;;;;;;6219789;28;20054;-83
2023/10/17 10:58:51;;;;;;;4.03;1.05;;;14.60;1.00;;;;;;6217761;28;20045;-80
2023/10/17 11:01:53;;;;;;;4.25;1.17;;;14.80;1.00;;;;;;6210673;28;20069;-82
2023/10/17 11:04:56;;;;;;;6.20;1.20;;;15.00;1.00;;;;;;6220077;28;20053;-82
2023/10/17 11:07:58;;;;;;;11.15;1.30;;;15.00;1.00;;;;;;6219963;28;20410;-81
2023/10/17 11:11:00;;;;;;;5.50;1.17;;;15.10;1.00;;;;;;6217705;28;20054;-79
2023/10/17 11:14:02;;;;;;;3.63;1.10;;;15.30;1.00;;;;;;6204526;28;20070;-84
2023/10/17 11:17:05;;;;;;;4.88;1.30;;;15.40;1.00;;;;;;6219097;28;20050;-79
2023/10/17 11:20:12;;;;;;;4.60;1.30;;;15.40;1.00;;;;;;6218798;28;20544;-81
2023/10/17 11:23:14;;;;;;;3.42;0.90;;;15.60;1.00;;;;;;6194859;28;20050;-81
2023/10/17 11:26:17;;;;;;;4.10;1.05;;;15.60;1.00;;;;;;6218791;28;20053;-84
2023/10/17 11:29:29;;;;;;;5.97;0.90;;;15.70;1.00;;;;;;6211692;28;20425;-77
2023/10/17 11:32:39;;;;;;;6.95;1.17;;;15.60;1.00;;;;;;6216974;28;20058;-81
2023/10/17 11:35:41;;;;;;;4.78;1.00;;;15.50;1.00;;;;;;6202067;28;20053;-78
2023/10/17 11:38:43;;;;;;;7.95;1.25;;;15.70;1.00;;;;;;6218777;28;20454;-77
2023/10/17 11:41:46;;;;;;;5.95;1.10;;;15.90;1.00;;;;;;6218969;28;20058;-77
2023/10/17 11:44:53;;;;;;;4.28;1.08;;;15.90;1.00;;;;;;6213519;28;20197;-77
2023/10/17 11:47:55;;;;;;;8.25;1.30;;;16.20;1.00;;;;;;6218271;28;20524;-79
2023/10/17 11:50:57;;;;;;;4.45;1.13;;;16.20;1.00;;;;;;6216180;28;20097;-77
2023/10/17 11:53:58;;;;;;;4.63;1.20;;;16.50;1.00;;;;;;6218166;28;20498;-77
2023/10/17 11:57:00;;;;;;;4.22;1.10;;;16.40;1.00;;;;;;6218169;28;20054;-80
2023/10/17 12:00:19;;;;;;;4.53;1.00;;;16.60;1.00;;;;;;6215395;28;20062;-78
2023/10/17 12:03:23;;;;;;;4.30;1.17;;;17.00;1.00;;;;;;6216769;28;20061;-77
2023/10/17 12:06:28;;;;;;;5.13;0.93;;;17.30;1.00;;;;;;6218753;28;20049;-81
2023/10/17 12:09:31;;;;;;;6.10;1.20;;;17.20;1.00;;;;;;6199204;28;20086;-79
2023/10/17 12:12:34;;;;;;;3.28;1.00;;;17.30;1.00;;;;;;6231610;28;20417;-83
2023/10/17 12:15:37;;;;;;;2.47;1.10;;;17.60;1.00;;;;;;6221535;28;20141;-79
2023/10/17 12:18:38;;;;;;;5.13;1.33;;;18.00;1.00;;;;;;6223403;28;20062;-77
2023/10/17 12:21:40;;;;;;;5.03;1.20;;;18.30;1.00;;;;;;6208540;28;20049;-86
2023/10/17 12:24:42;;;;;;;4.80;1.00;;;19.10;1.00;;;;;;6222972;28;20089;-83
2023/10/17 12:27:49;;;;;;;4.57;1.10;;;19.10;1.00;;;;;;6218865;28;20536;-81
2023/10/17 12:30:52;;;;;;;7.82;1.30;;;18.80;1.00;;;;;;6222242;28;20060;-85
2023/10/17 12:33:53;;;;;;;3.60;1.00;;;18.50;1.00;;;;;;6217865;28;20046;-87
2023/10/17 12:36:55;;;;;;;5.03;1.50;;;18.60;1.00;;;;;;6221959;28;20520;-80
2023/10/17 12:39:58;;;;;;;4.18;1.30;;;18.70;1.00;;;;;;6222022;28;20132;-78
2023/10/17 12:43:01;;;;;;;10.90;1.60;;;18.60;1.00;;;;;;6218773;28;20048;-87
2023/10/17 12:46:05;;;;;;;7.00;1.25;;;18.40;1.00;;;;;;6221868;28;20133;-81
2023/10/17 12:49:06;;;;;;;4.32;1.00;;;18.60;1.00;;;;;;6220011;28;20042;-81
2023/10/17 12:52:08;;;;;;;6.63;1.23;;;18.80;1.00;;;;;;6220293;28;20106;-85
2023/10/17 12:55:11;;;;;;;4.07;1.02;;;18.80;1.00;;;;;;6222155;28;20050;-80
2023/10/17 12:58:18;;;;;;;10.43;1.20;;;18.50;1.00;;;;;;6220821;28;20421;-80
2023/10/17 13:01:25;;;;;;;7.82;1.40;;;18.30;1.00;;;;;;6220038;28;20056;-80
2023/10/17 13:04:27;;;;;;;5.63;1.38;;;18.70;1.00;;;;;;6221563;28;20065;-78
2023/10/17 13:07:29;;;;;;;4.93;1.17;;;18.50;1.00;;;;;;6211553;28;20130;-84
2023/10/17 13:10:31;;;;;;;5.07;1.10;;;18.70;1.00;;;;;;6221319;28;20065;-78
2023/10/17 13:13:32;;;;;;;5.30;1.00;;;18.50;1.00;;;;;;6217748;28;20066;-90
2023/10/17 13:16:34;;;;;;;4.05;1.17;;;18.70;1.00;;;;;;6222667;28;20065;-85
2023/10/17 13:19:40;;;;;;;5.88;1.83;;;18.50;1.00;;;;;;6221842;28;20613;-88
2023/10/17 13:22:49;;;;;;;5.75;1.35;;;19.10;1.00;;;;;;6211900;28;20053;-81
2023/10/17 13:25:53;;;;;;;6.78;1.20;;;18.70;1.00;;;;;;6219839;28;20512;-85
2023/10/17 13:28:55;;;;;;;3.53;1.00;;;18.70;1.00;;;;;;6216580;28;20046;-78
2023/10/17 13:31:58;;;;;;;10.60;1.30;;;19.10;1.00;;;;;;6208953;28;20508;-82
2023/10/17 13:34:59;;;;;;;5.18;1.15;;;18.30;1.00;;;;;;6226941;28;20061;-84
2023/10/17 13:38:01;;;;;;;4.90;1.13;;;17.90;1.00;;;;;;6227793;28;20049;-91
2023/10/17 13:41:03;;;;;;;4.28;1.20;;;17.80;1.00;;;;;;6206033;28;20061;-83
2023/10/17 13:44:06;;;;;;;4.63;1.23;;;17.90;1.00;;;;;;6220319;28;20062;-78
2023/10/17 13:47:07;;;;;;;3.63;0.95;;;17.60;1.00;;;;;;6223147;28;20050;-85
2023/10/17 13:50:16;;;;;;;6.20;1.02;;;17.90;1.00;;;;;;6227474;28;20081;-88
2023/10/17 13:53:18;;;;;;;5.35;1.20;;;17.90;1.00;;;;;;6223793;28;20065;-82
2023/10/17 13:56:20;;;;;;;5.75;1.40;;;18.30;1.00;;;;;;6227993;28;20053;-84
2023/10/17 13:59:38;;;;;;;6.95;1.25;;;18.30;1.00;;;;;;6238078;28;20064;-90
2023/10/17 14:02:40;;;;;;;3.95;1.00;;;18.50;1.00;;;;;;6227144;28;20053;-84
2023/10/17 14:05:43;;;;;;;5.80;1.17;;;18.30;1.00;;;;;;6227817;28;20136;-88
2023/10/17 14:08:45;;;;;;;4.70;1.30;;;18.10;1.00;;;;;;6228269;28;20072;-82
2023/10/17 14:11:47;;;;;;;5.95;1.40;;;18.20;1.00;;;;;;6223662;28;20060;-82
2023/10/17 14:14:49;;;;;;;7.47;1.35;;;18.00;1.00;;;;;;6221875;28;20050;-82
2023/10/17 14:17:53;;;;;;;4.65;1.50;;;17.70;1.00;;;;;;6227452;28;20054;-82
2023/10/17 14:24:27;;;;;;;7.82;1.30;;;17.60;1.00;;;;;;6220409;28;20053;-80
2023/10/17 14:27:32;;;;;;;7.07;1.30;;;17.70;1.00;;;;;;6222799;28;20046;-85
2023/10/17 14:30:34;;;;;;;5.93;1.48;;;17.50;1.00;;;;;;6220145;28;20145;-86
2023/10/17 14:33:36;;;;;;;6.63;1.65;;;17.50;1.00;;;;;;6220608;28;20054;-86
2023/10/17 14:36:38;;;;;;;4.47;1.20;;;17.50;1.00;;;;;;6223911;28;20490;-83
2023/10/17 14:39:40;;;;;;;6.38;1.58;;;17.60;1.00;;;;;;6220364;28;20521;-82
2023/10/17 14:42:44;;;;;;;9.48;1.38;;;17.40;1.00;;;;;;6221268;28;20099;-81
2023/10/17 14:45:46;;;;;;;8.05;1.42;;;17.30;1.00;;;;;;6219878;28;20517;-84
2023/10/17 14:48:48;;;;;;;9.35;1.40;;;17.20;1.00;;;;;;6212472;28;20061;-85
2023/10/17 14:51:49;;;;;;;8.82;1.30;;;16.80;1.00;;;;;;6218198;28;20053;-83
2023/10/17 14:54:51;;;;;;;7.75;1.38;;;16.50;1.00;;;;;;6217639;28;20061;-82
2023/10/17 14:57:53;;;;;;;4.00;1.33;;;16.20;1.00;;;;;;6218413;28;20053;-81
2023/10/17 15:00:55;;;;;;;6.22;1.45;;;15.90;1.00;;;;;;6229346;28;20060;-87
2023/10/17 15:03:59;;;;;;;5.43;1.25;;;15.70;1.00;;;;;;6218365;28;20111;-84
2023/10/17 15:07:01;;;;;;;8.18;1.38;;;15.40;1.00;;;;;;6226778;28;20042;-81
2023/10/17 15:10:11;;;;;;;5.43;1.40;;;15.20;1.00;;;;;;6214189;28;20058;-82
2023/10/17 15:13:13;;;;;;;8.85;1.70;;;15.00;1.00;;;;;;6232977;28;20037;-85
2023/10/17 15:16:14;;;;;;;9.05;1.65;;;15.00;1.00;;;;;;6227445;28;20058;-84
2023/10/17 15:19:17;;;;;;;9.90;1.45;;;14.80;1.00;;;;;;6219614;28;20481;-84
2023/10/17 15:22:19;;;;;;;6.05;1.30;;;14.70;1.00;;;;;;6218380;28;20053;-76
2023/10/17 15:25:21;;;;;;;8.32;2.00;;;14.60;1.00;;;;;;6218317;28;20061;-76
2023/10/17 15:28:22;;;;;;;9.10;2.30;;;14.50;1.00;;;;;;6215237;28;20061;-79
2023/10/17 15:31:26;;;;;;;7.55;1.58;;;14.50;1.00;;;;;;6218822;28;20054;-77
2023/10/17 15:34:28;;;;;;;6.57;1.60;;;14.40;1.00;;;;;;6218200;28;20057;-78
2023/10/17 15:37:30;;;;;;;7.80;1.85;;;14.30;1.00;;;;;;6211727;28;20060;-79
2023/10/17 15:40:31;;;;;;;13.43;1.92;;;14.20;1.00;;;;;;6217841;28;20050;-79
2023/10/17 15:43:33;;;;;;;6.70;1.70;;;14.10;1.00;;;;;;6219876;28;20050;-79
2023/10/17 15:46:35;;;;;;;9.75;2.35;;;14.00;1.00;;;;;;6221755;28;20084;-79
2023/10/17 15:49:38;;;;;;;9.38;2.13;;;13.90;1.00;;;;;;6220209;28;20077;-77
2023/10/17 15:52:41;;;;;;;6.72;1.88;;;13.80;1.00;;;;;;6223394;28;20144;-76
2023/10/17 15:55:42;;;;;;;9.60;2.05;;;13.70;1.00;;;;;;6222882;28;20217;-76
2023/10/17 15:58:44;;;;;;;9.23;2.00;;;13.70;1.00;;;;;;6220811;28;20084;-77
2023/10/17 16:01:46;;;;;;;8.07;2.08;;;13.60;1.00;;;;;;6222672;28;20151;-77
2023/10/17 16:04:48;;;;;;;7.22;1.75;;;13.50;1.00;;;;;;6222830;28;20580;-79
2023/10/17 16:07:49;;;;;;;10.27;2.17;;;13.40;1.00;;;;;;6222429;28;20494;-78
2023/10/17 16:10:55;;;;;;;8.27;2.28;;;13.30;1.00;;;;;;6222514;28;20494;-78
2023/10/17 16:13:58;;;;;;;13.07;2.00;;;13.20;1.00;;;;;;6219268;28;20054;-79
2023/10/17 16:17:00;;;;;;;6.35;1.95;;;13.20;1.00;;;;;;6222175;28;20066;-79
2023/10/17 16:20:03;;;;;;;8.20;2.15;;;13.10;1.00;;;;;;6222056;28;20053;-78
2023/10/17 16:23:05;;;;;;;10.85;2.38;;;13.10;1.00;;;;;;6222886;28;20061;-77
2023/10/17 16:26:08;;;;;;;11.40;2.03;;;13.00;1.00;;;;;;6222317;28;20112;-79
2023/10/17 16:29:10;;;;;;;6.60;1.73;;;12.90;1.00;;;;;;6220155;28;20057;-78
2023/10/17 16:32:12;;;;;;;9.48;2.00;;;12.90;1.00;;;;;;6222171;28;20060;-78
2023/10/17 16:35:16;;;;;;;6.50;1.90;;;12.90;1.00;;;;;;6220509;28;20046;-79
2023/10/17 16:38:23;;;;;;;8.05;1.90;;;12.80;1.00;;;;;;6221826;28;20077;-81
2023/10/17 16:41:25;;;;;;;7.68;2.25;;;12.70;1.00;;;;;;6221761;28;20429;-79
2023/10/17 16:44:27;;;;;;;13.40;2.67;;;12.70;1.00;;;;;;6216325;28;20463;-78
2023/10/17 16:47:29;;;;;;;13.43;4.75;;;12.60;1.00;;;;;;6221642;28;20072;-79
2023/10/17 16:50:32;;;;;;;8.40;2.60;;;12.60;1.00;;;;;;6221426;28;20058;-78
2023/10/17 16:53:35;;;;;;;8.85;2.75;;;12.50;1.00;;;;;;6221905;28;20089;-77
2023/10/17 16:56:37;;;;;;;6.20;2.60;;;12.40;1.00;;;;;;6221666;28;20464;-78
2023/10/17 16:59:40;;;;;;;9.98;3.20;;;12.40;1.00;;;;;;6218633;28;20612;-77
2023/10/17 17:02:42;;;;;;;12.30;3.25;;;12.40;1.00;;;;;;6221602;28;20060;-77
2023/10/17 17:05:48;;;;;;;18.85;5.38;;;12.30;1.00;;;;;;6196955;28;20058;-77
2023/10/17 17:08:51;;;;;;;10.27;3.47;;;12.30;1.00;;;;;;6220237;28;20045;-77
2023/10/17 17:11:54;;;;;;;14.75;2.58;;;12.30;1.00;;;;;;6221091;28;20058;-77
2023/10/17 17:14:55;;;;;;;8.85;2.45;;;12.20;1.00;;;;;;6215244;28;20344;-77
2023/10/17 17:17:57;;;;;;;12.25;3.97;;;12.20;1.00;;;;;;6221141;28;20065;-76
2023/10/17 17:21:20;;;;;;;9.63;2.20;;;12.20;1.00;;;;;;6197087;28;20057;-77
2023/10/17 17:24:23;;;;;;;9.88;2.75;;;12.20;1.00;;;;;;6220576;28;20336;-78
2023/10/17 17:27:28;;;;;;;9.35;2.05;;;12.20;1.00;;;;;;6221246;28;20077;-78
2023/10/17 17:30:30;;;;;;;12.25;2.40;;;12.20;1.00;;;;;;6196779;28;20148;-79
2023/10/17 17:33:32;;;;;;;16.52;9.00;;;12.10;1.00;;;;;;6197057;28;20141;-79
2023/10/17 17:36:34;;;;;;;11.25;2.75;;;12.10;1.00;;;;;;6220214;28;20449;-77
2023/10/17 17:39:36;;;;;;;12.95;3.30;;;12.10;1.00;;;;;;6220436;28;20053;-78
2023/10/17 17:42:37;;;;;;;10.68;3.78;;;12.10;1.60;;;;;;6220420;28;20045;-77
2023/10/17 17:45:41;;;;;;;12.88;4.60;;;12.00;2.60;;;;;;6218965;28;20061;-77
2023/10/17 17:48:43;;;;;;;9.60;2.58;;;12.00;2.10;;;;;;6196436;28;20046;-77
2023/10/17 17:51:45;;;;;;;11.23;2.72;;;12.10;4.00;;;;;;6228310;28;20073;-77
2023/10/17 17:54:47;;;;;;;8.98;2.58;;;12.10;3.60;;;;;;6212285;28;20043;-77
2023/10/17 17:57:51;;;;;;;12.10;2.97;;;12.00;3.90;;;;;;6209119;28;20058;-77